Airfield :
LOGIN :

Register | Disclaimer

   EN    FR    IT 

 










Legend :    VFR   Marginal VFR   IFR   Intensive IFR   Very Intensive IFR
Visi :
Ceiling :
>= 8 km
>= 3000ft
5 to 8 km
1000 to 3000 ft
1500m to 5 km
500 to 1000 ft
800 to 1500m
200 to 500 ft
< 800m
< 200 ft
Symbols :   Thunderstorms  Fog  Heavy snow  Heavy precipitations  Wind > 20 kt
SIGMETs :     Misc.  Thunderstorms  Icing  Turbulence  Mountain Waves  Volcanic Ashes







- Airport Elevation : 42 ft
- IATA code : KGD


UMKK - Khrabrava - Kaliningrad

CURRENT METAR :
  • 191630Z 05004MPS CAVOK 21/12 Q1013 R06/60D NOSIG RMK QFE759/1012

EXPIRED METARs :
  • 191600Z 06005MPS CAVOK 21/12 Q1013 R06/CLRD60 NOSIG RMK QFE759/1012
  • 191530Z 05005MPS CAVOK 22/12 Q1013 R06/60D NOSIG RMK QFE759/1012
  • 191500Z 05005MPS CAVOK 22/12 Q1013 R06/CLRD60 NOSIG RMK QFE759/1012
  • 191430Z 04004MPS CAVOK 22/13 Q1013 R06/60D NOSIG RMK QFE759/1012
  • 191400Z 04004MPS 010V070 9999 FEW020 22/13 Q1014 R06/CLRD60 NOSIG RMK QFE759/1012

TAF TAF UMKK
Valid from the 19 at 15:00 until the 20 at 15:00 UTC


191358Z 1915/2015 04003G08MPS 9999 SCT020
FM192000 06003MPS 3100 BR SCT011
TEMPO 1920/2005 VRB01MPS 0300 FG BKN002
BECMG 2005/2007 08003G08MPS CAVOK
TEMPO 2012/2015 05006MPS



MET'MAP, your aeronautical weather chart ! - Copyright ORBIFLY December 2007 - Disclaimer

ORBIFLY MET'MAP TEAM :

Programming & Development : Alexandra Zaïnal
Concept & Development : Baudouin d'Aumeries
Co-Development & Prog : Marc-Olivier Méhu
Technical & hardware support : Manuel Goepfert

Contact : metmap@orbifly.com




SOURCES & CREDITS :

   NOAA